Bosporus — V2QY — position and weather

sailwx.info

Track history (hours):
 
Tides and Currents Weather Stations Pressure Air Temp Water Temp Dewpoint Dewpoint Depression Visibility Wind Speed Wind Dir Waves Ship Positions

Bosporus

Last reported at 2017-Jun-25 21:04 UTC. Time now 2017-Jun-26 03:51 UTC.
Position N 41°30' E 002°45'.

Length 100 m; draft 5.7 m.

Type: Cargo ship. MMSI: 304010802.

Date/timePositionNaut miles runAvg speedWind from/ knotsBaromVisibWave heightAir tempDewpointWater temp
2017-Jun-25 21:04N 41°30' E 002°45'1311.8
2017-Jun-25 19:58N 41°22' E 002°31'5411.3
2017-Jun-25 15:12N 40°47' E 001°37'26 0.9
2017-Jun-24 10:33N 40°31' E 001°11'110.3
2017-Jun-24 10:29N 40°31' E 001°11'510.2
2017-Jun-24 09:59N 40°35' E 001°16'510.2
2017-Jun-24 09:30N 40°38' E 001°21'510.1
2017-Jun-24 09:00N 40°41' E 001°26'611.6
2017-Jun-24 08:30N 40°45' E 001°32'510.4
2017-Jun-24 08:00N 40°48' E 001°37'510.6
2017-Jun-24 07:30N 40°51' E 001°43'610.5
2017-Jun-24 06:58N 40°55' E 001°49'510.6
2017-Jun-24 06:30N 40°58' E 001°54'2710.0
2017-Jun-24 03:47N 41°15' E 002°22'410.2
2017-Jun-24 03:26N 41°18' E 002°25'910.2
2017-Jun-24 02:35N 41°23' E 002°34'410.0
2017-Jun-24 02:13N 41°26' E 002°38'4 9.9
2017-Jun-24 01:47N 41°29' E 002°42'310.1
2017-Jun-24 01:30N 41°30' E 002°45'1310.2
2017-Jun-24 00:16N 41°38' E 002°58'3 9.9
2017-Jun-23 23:57N 41°40' E 003°01'7 8.0
2017-Jun-23 23:06N 41°45' E 003°08'110.2
2017-Jun-23 22:57N 41°46' E 003°09'  
2017-Jun-19 12:39N 43°09' E 004°59'2211.2
2017-Jun-19 10:40N 42°53' E 004°38'2010.6
2017-Jun-19 08:46N 42°39' E 004°19'7210.6
2017-Jun-19 01:58N 41°47' E 003°11'611.5
2017-Jun-19 01:29N 41°43' E 003°06'611.7
2017-Jun-19 00:58N 41°39' E 002°59'10611.2
2017-Jun-18 15:34N 40°31' E 001°12'18 0.5
2017-Jun-17 03:44N 40°20' E 000°55'410.8
2017-Jun-17 03:22N 40°22' E 000°58'710.6
2017-Jun-17 02:42N 40°27' E 001°06'310.6
2017-Jun-17 02:25N 40°29' E 001°08'610.6
2017-Jun-17 01:53N 40°33' E 001°14'510.6
2017-Jun-17 01:26N 40°36' E 001°19'510.4
2017-Jun-17 00:56N 40°39' E 001°24'610.3
2017-Jun-17 00:22N 40°43' E 001°30'410.2
2017-Jun-16 23:59N 40°45' E 001°34'610.4
2017-Jun-16 23:27N 40°49' E 001°40'810.5
2017-Jun-16 22:39N 40°54' E 001°48'210.8
2017-Jun-16 22:29N 40°55' E 001°50'1510.5
2017-Jun-16 21:04N 41°05' E 002°05'158 9.7
2017-Jun-16 04:51N 42°58' E 004°33'2010.1
2017-Jun-16 02:53N 43°13' E 004°51'  
Track history (hours):
 
Tides and Currents Weather Stations Pressure Air Temp Water Temp Dewpoint Dewpoint Depression Visibility Wind Speed Wind Dir Waves Ship Positions

Bosporus

Last reported at 2017-Jun-25 21:04 UTC. Time now 2017-Jun-26 03:51 UTC.
Position N 41°30' E 002°45'.

Length 100 m; draft 5.7 m.

Type: Cargo ship. MMSI: 304010802.

Date/timePositionNaut miles runAvg speedWind from/ knotsBaromVisibWave heightAir tempDewpointWater temp
2017-Jun-25 21:04N 41°30' E 002°45'1311.8
2017-Jun-25 19:58N 41°22' E 002°31'5411.3
2017-Jun-25 15:12N 40°47' E 001°37'26 0.9
2017-Jun-24 10:33N 40°31' E 001°11'110.3
2017-Jun-24 10:29N 40°31' E 001°11'510.2
2017-Jun-24 09:59N 40°35' E 001°16'510.2
2017-Jun-24 09:30N 40°38' E 001°21'510.1
2017-Jun-24 09:00N 40°41' E 001°26'611.6
2017-Jun-24 08:30N 40°45' E 001°32'510.4
2017-Jun-24 08:00N 40°48' E 001°37'510.6
2017-Jun-24 07:30N 40°51' E 001°43'610.5
2017-Jun-24 06:58N 40°55' E 001°49'510.6
2017-Jun-24 06:30N 40°58' E 001°54'2710.0
2017-Jun-24 03:47N 41°15' E 002°22'410.2
2017-Jun-24 03:26N 41°18' E 002°25'910.2
2017-Jun-24 02:35N 41°23' E 002°34'410.0
2017-Jun-24 02:13N 41°26' E 002°38'4 9.9
2017-Jun-24 01:47N 41°29' E 002°42'310.1
2017-Jun-24 01:30N 41°30' E 002°45'1310.2
2017-Jun-24 00:16N 41°38' E 002°58'3 9.9
2017-Jun-23 23:57N 41°40' E 003°01'7 8.0
2017-Jun-23 23:06N 41°45' E 003°08'110.2
2017-Jun-23 22:57N 41°46' E 003°09'  
2017-Jun-19 12:39N 43°09' E 004°59'2211.2
2017-Jun-19 10:40N 42°53' E 004°38'2010.6
2017-Jun-19 08:46N 42°39' E 004°19'7210.6
2017-Jun-19 01:58N 41°47' E 003°11'611.5
2017-Jun-19 01:29N 41°43' E 003°06'611.7
2017-Jun-19 00:58N 41°39' E 002°59'10611.2
2017-Jun-18 15:34N 40°31' E 001°12'18 0.5
2017-Jun-17 03:44N 40°20' E 000°55'410.8
2017-Jun-17 03:22N 40°22' E 000°58'710.6
2017-Jun-17 02:42N 40°27' E 001°06'310.6
2017-Jun-17 02:25N 40°29' E 001°08'610.6
2017-Jun-17 01:53N 40°33' E 001°14'510.6
2017-Jun-17 01:26N 40°36' E 001°19'510.4
2017-Jun-17 00:56N 40°39' E 001°24'610.3
2017-Jun-17 00:22N 40°43' E 001°30'410.2
2017-Jun-16 23:59N 40°45' E 001°34'610.4
2017-Jun-16 23:27N 40°49' E 001°40'810.5
2017-Jun-16 22:39N 40°54' E 001°48'210.8
2017-Jun-16 22:29N 40°55' E 001°50'1510.5
2017-Jun-16 21:04N 41°05' E 002°05'158 9.7
2017-Jun-16 04:51N 42°58' E 004°33'2010.1
2017-Jun-16 02:53N 43°13' E 004°51'  

Dump ship's entire track history